sensor_id;sensor_type;location;lat;lon;timestamp;temperature;humidity
38464;DHT22;24243;51.956;5.902;2022-08-11T00:01:03;26.60;41.90
38464;DHT22;24243;51.956;5.902;2022-08-11T00:03:29;26.60;41.90
38464;DHT22;24243;51.956;5.902;2022-08-11T00:05:55;26.60;41.90
38464;DHT22;24243;51.956;5.902;2022-08-11T00:08:30;26.60;41.90
38464;DHT22;24243;51.956;5.902;2022-08-11T00:11:06;26.60;41.90
38464;DHT22;24243;51.956;5.902;2022-08-11T00:13:37;26.50;41.90
38464;DHT22;24243;51.956;5.902;2022-08-11T00:16:03;26.50;41.90
38464;DHT22;24243;51.956;5.902;2022-08-11T00:18:37;26.50;41.90
38464;DHT22;24243;51.956;5.902;2022-08-11T00:21:03;26.50;41.90
38464;DHT22;24243;51.956;5.902;2022-08-11T00:23:29;26.50;42.00
38464;DHT22;24243;51.956;5.902;2022-08-11T00:25:55;26.50;42.00
38464;DHT22;24243;51.956;5.902;2022-08-11T00:28:28;26.50;42.00
38464;DHT22;24243;51.956;5.902;2022-08-11T00:30:55;26.50;42.00
38464;DHT22;24243;51.956;5.902;2022-08-11T00:33:22;26.50;42.00
38464;DHT22;24243;51.956;5.902;2022-08-11T00:35:49;26.50;42.10
38464;DHT22;24243;51.956;5.902;2022-08-11T00:38:15;26.50;42.10
38464;DHT22;24243;51.956;5.902;2022-08-11T00:40:43;26.50;42.10
38464;DHT22;24243;51.956;5.902;2022-08-11T00:46:15;26.50;42.10
38464;DHT22;24243;51.956;5.902;2022-08-11T00:48:47;26.40;42.10
38464;DHT22;24243;51.956;5.902;2022-08-11T00:54:02;26.40;42.10
38464;DHT22;24243;51.956;5.902;2022-08-11T00:56:41;26.40;42.20
38464;DHT22;24243;51.956;5.902;2022-08-11T00:59:31;26.40;42.20
38464;DHT22;24243;51.956;5.902;2022-08-11T01:02:07;26.40;42.20
38464;DHT22;24243;51.956;5.902;2022-08-11T01:07:49;26.40;42.30
38464;DHT22;24243;51.956;5.902;2022-08-11T01:30:56;26.40;42.50
38464;DHT22;24243;51.956;5.902;2022-08-11T01:41:21;26.40;42.60
38464;DHT22;24243;51.956;5.902;2022-08-11T01:46:55;26.40;42.60
38464;DHT22;24243;51.956;5.902;2022-08-11T01:49:38;26.40;42.70
38464;DHT22;24243;51.956;5.902;2022-08-11T01:52:12;26.40;42.70
38464;DHT22;24243;51.956;5.902;2022-08-11T01:54:44;26.40;42.70
38464;DHT22;24243;51.956;5.902;2022-08-11T01:57:27;26.40;42.70
38464;DHT22;24243;51.956;5.902;2022-08-11T02:00:05;26.30;42.70
38464;DHT22;24243;51.956;5.902;2022-08-11T02:02:45;26.40;42.70
38464;DHT22;24243;51.956;5.902;2022-08-11T02:10:46;26.30;42.70
38464;DHT22;24243;51.956;5.902;2022-08-11T02:18:33;26.30;42.80
38464;DHT22;24243;51.956;5.902;2022-08-11T02:21:21;26.30;42.80
38464;DHT22;24243;51.956;5.902;2022-08-11T02:24:15;26.30;42.80
38464;DHT22;24243;51.956;5.902;2022-08-11T02:26:45;26.30;42.80
38464;DHT22;24243;51.956;5.902;2022-08-11T02:35:04;26.30;42.80
38464;DHT22;24243;51.956;5.902;2022-08-11T02:57:42;26.20;42.90
38464;DHT22;24243;51.956;5.902;2022-08-11T03:00:12;26.20;42.90
38464;DHT22;24243;51.956;5.902;2022-08-11T03:02:45;26.20;42.90
38464;DHT22;24243;51.956;5.902;2022-08-11T03:05:57;26.20;42.90
38464;DHT22;24243;51.956;5.902;2022-08-11T03:08:07;26.20;42.90
38464;DHT22;24243;51.956;5.902;2022-08-11T03:10:40;26.20;42.90
38464;DHT22;24243;51.956;5.902;2022-08-11T03:21:22;26.20;43.00
38464;DHT22;24243;51.956;5.902;2022-08-11T03:23:57;26.20;43.00
38464;DHT22;24243;51.956;5.902;2022-08-11T03:26:27;26.10;43.00
38464;DHT22;24243;51.956;5.902;2022-08-11T03:34:26;26.10;43.00
38464;DHT22;24243;51.956;5.902;2022-08-11T03:40:15;26.10;43.00
38464;DHT22;24243;51.956;5.902;2022-08-11T03:46:07;26.10;43.10
38464;DHT22;24243;51.956;5.902;2022-08-11T04:06:40;26.10;43.10
38464;DHT22;24243;51.956;5.902;2022-08-11T04:14:33;26.10;43.20
38464;DHT22;24243;51.956;5.902;2022-08-11T04:25:18;26.00;43.10
38464;DHT22;24243;51.956;5.902;2022-08-11T04:35:41;26.10;43.30
38464;DHT22;24243;51.956;5.902;2022-08-11T04:57:19;26.00;43.20
38464;DHT22;24243;51.956;5.902;2022-08-11T05:00:05;26.10;43.30
38464;DHT22;24243;51.956;5.902;2022-08-11T05:05:33;26.00;43.90
38464;DHT22;24243;51.956;5.902;2022-08-11T05:13:31;26.00;43.30
38464;DHT22;24243;51.956;5.902;2022-08-11T05:16:17;26.00;43.30
38464;DHT22;24243;51.956;5.902;2022-08-11T05:19:02;26.10;43.30
38464;DHT22;24243;51.956;5.902;2022-08-11T05:21:50;26.00;43.30
38464;DHT22;24243;51.956;5.902;2022-08-11T05:24:45;26.10;43.30
38464;DHT22;24243;51.956;5.902;2022-08-11T05:30:40;26.00;43.20
38464;DHT22;24243;51.956;5.902;2022-08-11T05:33:33;26.10;43.30
38464;DHT22;24243;51.956;5.902;2022-08-11T05:36:28;26.10;43.20
38464;DHT22;24243;51.956;5.902;2022-08-11T05:39:00;26.10;43.20
38464;DHT22;24243;51.956;5.902;2022-08-11T05:41:45;26.10;43.70
38464;DHT22;24243;51.956;5.902;2022-08-11T05:44:29;26.20;43.20
38464;DHT22;24243;51.956;5.902;2022-08-11T05:47:21;26.20;43.10
38464;DHT22;24243;51.956;5.902;2022-08-11T05:50:08;26.20;43.00
38464;DHT22;24243;51.956;5.902;2022-08-11T05:52:53;26.20;43.00
38464;DHT22;24243;51.956;5.902;2022-08-11T05:55:41;26.20;43.00
38464;DHT22;24243;51.956;5.902;2022-08-11T05:58:26;26.20;43.00
38464;DHT22;24243;51.956;5.902;2022-08-11T06:00:56;26.20;43.00
38464;DHT22;24243;51.956;5.902;2022-08-11T06:03:25;26.20;42.90
38464;DHT22;24243;51.956;5.902;2022-08-11T06:05:52;26.40;42.80
38464;DHT22;24243;51.956;5.902;2022-08-11T06:08:18;26.50;42.70
38464;DHT22;24243;51.956;5.902;2022-08-11T06:10:51;26.50;42.60
38464;DHT22;24243;51.956;5.902;2022-08-11T06:13:17;26.50;42.60
38464;DHT22;24243;51.956;5.902;2022-08-11T06:15:43;26.60;42.40
38464;DHT22;24243;51.956;5.902;2022-08-11T06:18:10;26.80;42.10
38464;DHT22;24243;51.956;5.902;2022-08-11T06:20:46;26.90;41.90
38464;DHT22;24243;51.956;5.902;2022-08-11T06:23:12;26.90;41.80
38464;DHT22;24243;51.956;5.902;2022-08-11T06:25:42;26.90;41.90
38464;DHT22;24243;51.956;5.902;2022-08-11T06:28:08;27.00;41.90
38464;DHT22;24243;51.956;5.902;2022-08-11T06:30:35;27.30;41.70
38464;DHT22;24243;51.956;5.902;2022-08-11T06:33:05;27.60;41.10
38464;DHT22;24243;51.956;5.902;2022-08-11T06:38:16;28.40;40.20
38464;DHT22;24243;51.956;5.902;2022-08-11T06:40:55;28.70;39.60
38464;DHT22;24243;51.956;5.902;2022-08-11T06:43:45;28.70;39.50
38464;DHT22;24243;51.956;5.902;2022-08-11T06:46:11;28.40;39.90
38464;DHT22;24243;51.956;5.902;2022-08-11T06:48:39;28.10;40.40
38464;DHT22;24243;51.956;5.902;2022-08-11T06:51:07;27.80;40.80
38464;DHT22;24243;51.956;5.902;2022-08-11T06:53:43;27.50;41.10
38464;DHT22;24243;51.956;5.902;2022-08-11T06:56:10;27.30;41.40
38464;DHT22;24243;51.956;5.902;2022-08-11T06:58:55;27.10;41.60
38464;DHT22;24243;51.956;5.902;2022-08-11T07:04:10;26.90;42.10
38464;DHT22;24243;51.956;5.902;2022-08-11T07:12:57;26.60;42.30
38464;DHT22;24243;51.956;5.902;2022-08-11T07:15:41;26.60;42.50
38464;DHT22;24243;51.956;5.902;2022-08-11T07:18:30;26.60;42.50
38464;DHT22;24243;51.956;5.902;2022-08-11T07:23:57;26.50;42.60
38464;DHT22;24243;51.956;5.902;2022-08-11T07:26:44;26.60;42.60
38464;DHT22;24243;51.956;5.902;2022-08-11T07:29:31;26.60;42.60
38464;DHT22;24243;51.956;5.902;2022-08-11T07:31:57;26.60;42.70
38464;DHT22;24243;51.956;5.902;2022-08-11T07:34:27;26.50;42.60
38464;DHT22;24243;51.956;5.902;2022-08-11T07:36:56;26.50;42.60
38464;DHT22;24243;51.956;5.902;2022-08-11T07:39:32;26.60;42.60
38464;DHT22;24243;51.956;5.902;2022-08-11T07:41:58;26.60;42.60
38464;DHT22;24243;51.956;5.902;2022-08-11T07:44:24;26.60;42.60
38464;DHT22;24243;51.956;5.902;2022-08-11T07:46:53;26.60;42.50
38464;DHT22;24243;51.956;5.902;2022-08-11T07:49:37;26.60;42.50
38464;DHT22;24243;51.956;5.902;2022-08-11T07:52:24;26.60;42.50
38464;DHT22;24243;51.956;5.902;2022-08-11T07:55:05;26.60;42.50
38464;DHT22;24243;51.956;5.902;2022-08-11T07:57:31;26.60;42.50
38464;DHT22;24243;51.956;5.902;2022-08-11T08:00:16;26.60;42.50
38464;DHT22;24243;51.956;5.902;2022-08-11T08:03:00;26.70;42.60
38464;DHT22;24243;51.956;5.902;2022-08-11T08:05:46;26.70;42.50
38464;DHT22;24243;51.956;5.902;2022-08-11T08:08:30;26.70;42.40
38464;DHT22;24243;51.956;5.902;2022-08-11T08:11:15;26.70;42.40
38464;DHT22;24243;51.956;5.902;2022-08-11T08:13:59;26.80;42.50
38464;DHT22;24243;51.956;5.902;2022-08-11T08:16:44;26.80;42.40
38464;DHT22;24243;51.956;5.902;2022-08-11T08:19:28;26.90;43.10
38464;DHT22;24243;51.956;5.902;2022-08-11T08:21:55;26.90;42.40
38464;DHT22;24243;51.956;5.902;2022-08-11T08:24:21;26.90;42.50
38464;DHT22;24243;51.956;5.902;2022-08-11T08:26:47;26.90;42.40
38464;DHT22;24243;51.956;5.902;2022-08-11T08:29:32;26.90;42.40
38464;DHT22;24243;51.956;5.902;2022-08-11T08:32:17;27.00;42.50
38464;DHT22;24243;51.956;5.902;2022-08-11T08:34:44;27.00;42.50
38464;DHT22;24243;51.956;5.902;2022-08-11T08:37:10;27.10;42.50
38464;DHT22;24243;51.956;5.902;2022-08-11T08:39:36;27.10;42.50
38464;DHT22;24243;51.956;5.902;2022-08-11T08:42:09;27.10;42.50
38464;DHT22;24243;51.956;5.902;2022-08-11T08:44:38;27.10;42.50
38464;DHT22;24243;51.956;5.902;2022-08-11T08:47:05;27.10;43.20
38464;DHT22;24243;51.956;5.902;2022-08-11T08:49:33;27.10;42.50
38464;DHT22;24243;51.956;5.902;2022-08-11T08:52:00;27.20;42.60
38464;DHT22;24243;51.956;5.902;2022-08-11T08:54:28;27.20;42.60
38464;DHT22;24243;51.956;5.902;2022-08-11T08:56:55;27.20;42.60
38464;DHT22;24243;51.956;5.902;2022-08-11T08:59:22;27.20;42.60
38464;DHT22;24243;51.956;5.902;2022-08-11T09:01:52;27.20;42.60
38464;DHT22;24243;51.956;5.902;2022-08-11T09:04:19;27.20;42.60
38464;DHT22;24243;51.956;5.902;2022-08-11T09:06:45;27.20;42.60
38464;DHT22;24243;51.956;5.902;2022-08-11T09:09:11;27.20;42.50
38464;DHT22;24243;51.956;5.902;2022-08-11T09:11:38;27.30;42.60
38464;DHT22;24243;51.956;5.902;2022-08-11T09:14:52;27.20;42.50
38464;DHT22;24243;51.956;5.902;2022-08-11T09:17:29;27.30;42.60
38464;DHT22;24243;51.956;5.902;2022-08-11T09:19:59;27.30;42.60
38464;DHT22;24243;51.956;5.902;2022-08-11T09:22:25;27.40;42.60
38464;DHT22;24243;51.956;5.902;2022-08-11T09:25:10;27.40;42.60
38464;DHT22;24243;51.956;5.902;2022-08-11T09:27:55;27.40;42.60
38464;DHT22;24243;51.956;5.902;2022-08-11T09:30:22;27.40;42.50
38464;DHT22;24243;51.956;5.902;2022-08-11T09:32:53;27.40;42.50
38464;DHT22;24243;51.956;5.902;2022-08-11T09:35:26;27.50;42.60
38464;DHT22;24243;51.956;5.902;2022-08-11T09:37:53;27.50;42.50
38464;DHT22;24243;51.956;5.902;2022-08-11T09:40:38;27.50;42.40
38464;DHT22;24243;51.956;5.902;2022-08-11T09:43:05;27.60;42.40
38464;DHT22;24243;51.956;5.902;2022-08-11T09:45:54;27.60;42.30
38464;DHT22;24243;51.956;5.902;2022-08-11T09:48:24;27.60;42.20
38464;DHT22;24243;51.956;5.902;2022-08-11T09:50:59;27.60;42.10
38464;DHT22;24243;51.956;5.902;2022-08-11T09:53:26;27.60;42.20
38464;DHT22;24243;51.956;5.902;2022-08-11T09:55:52;27.60;42.20
38464;DHT22;24243;51.956;5.902;2022-08-11T09:58:18;27.60;42.10
38464;DHT22;24243;51.956;5.902;2022-08-11T10:00:46;27.60;42.10
38464;DHT22;24243;51.956;5.902;2022-08-11T10:03:14;27.60;42.10
38464;DHT22;24243;51.956;5.902;2022-08-11T10:05:43;27.60;42.10
38464;DHT22;24243;51.956;5.902;2022-08-11T10:08:28;27.70;42.10
38464;DHT22;24243;51.956;5.902;2022-08-11T10:10:55;27.70;42.00
38464;DHT22;24243;51.956;5.902;2022-08-11T10:13:21;27.80;42.00
38464;DHT22;24243;51.956;5.902;2022-08-11T10:15:52;27.80;41.90
38464;DHT22;24243;51.956;5.902;2022-08-11T10:18:29;27.90;42.00
38464;DHT22;24243;51.956;5.902;2022-08-11T10:23:53;27.90;41.90
38464;DHT22;24243;51.956;5.902;2022-08-11T10:26:41;27.90;41.80
38464;DHT22;24243;51.956;5.902;2022-08-11T10:32:09;28.00;41.80
38464;DHT22;24243;51.956;5.902;2022-08-11T10:34:53;28.00;41.70
38464;DHT22;24243;51.956;5.902;2022-08-11T10:37:20;28.00;41.60
38464;DHT22;24243;51.956;5.902;2022-08-11T10:39:47;28.00;41.50
38464;DHT22;24243;51.956;5.902;2022-08-11T10:42:13;28.00;41.50
38464;DHT22;24243;51.956;5.902;2022-08-11T10:44:57;28.00;41.50
38464;DHT22;24243;51.956;5.902;2022-08-11T10:47:25;28.00;41.40
38464;DHT22;24243;51.956;5.902;2022-08-11T10:50:06;28.10;41.50
38464;DHT22;24243;51.956;5.902;2022-08-11T10:52:51;28.10;41.40
38464;DHT22;24243;51.956;5.902;2022-08-11T10:55:35;28.10;41.30
38464;DHT22;24243;51.956;5.902;2022-08-11T10:58:21;28.10;41.20
38464;DHT22;24243;51.956;5.902;2022-08-11T11:01:05;28.20;41.20
38464;DHT22;24243;51.956;5.902;2022-08-11T11:03:31;28.20;41.10
38464;DHT22;24243;51.956;5.902;2022-08-11T11:08:36;28.10;41.10
38464;DHT22;24243;51.956;5.902;2022-08-11T11:11:18;28.20;41.10
38464;DHT22;24243;51.956;5.902;2022-08-11T11:13:46;28.20;41.00
38464;DHT22;24243;51.956;5.902;2022-08-11T11:16:31;28.20;41.00
38464;DHT22;24243;51.956;5.902;2022-08-11T11:19:17;28.20;40.90
38464;DHT22;24243;51.956;5.902;2022-08-11T11:21:48;28.20;40.80
38464;DHT22;24243;51.956;5.902;2022-08-11T11:24:18;28.20;40.70
38464;DHT22;24243;51.956;5.902;2022-08-11T11:27:02;28.20;40.60
38464;DHT22;24243;51.956;5.902;2022-08-11T11:32:16;28.30;40.40
38464;DHT22;24243;51.956;5.902;2022-08-11T11:37:08;28.30;40.10
38464;DHT22;24243;51.956;5.902;2022-08-11T11:39:36;28.30;40.00
38464;DHT22;24243;51.956;5.902;2022-08-11T11:42:02;28.30;40.60
38464;DHT22;24243;51.956;5.902;2022-08-11T11:44:29;28.40;39.90
38464;DHT22;24243;51.956;5.902;2022-08-11T11:46:55;28.40;39.80
38464;DHT22;24243;51.956;5.902;2022-08-11T11:49:22;28.40;39.70
38464;DHT22;24243;51.956;5.902;2022-08-11T11:51:49;28.50;39.70
38464;DHT22;24243;51.956;5.902;2022-08-11T11:54:22;28.50;39.60
38464;DHT22;24243;51.956;5.902;2022-08-11T11:56:48;28.50;39.50
38464;DHT22;24243;51.956;5.902;2022-08-11T11:59:18;28.50;39.40
38464;DHT22;24243;51.956;5.902;2022-08-11T12:02:03;28.50;39.90
38464;DHT22;24243;51.956;5.902;2022-08-11T12:04:29;28.50;39.20
38464;DHT22;24243;51.956;5.902;2022-08-11T12:06:55;28.50;39.00
38464;DHT22;24243;51.956;5.902;2022-08-11T12:09:41;28.60;39.00
38464;DHT22;24243;51.956;5.902;2022-08-11T12:12:07;28.60;38.80
38464;DHT22;24243;51.956;5.902;2022-08-11T12:14:52;28.60;38.70
38464;DHT22;24243;51.956;5.902;2022-08-11T12:17:17;28.60;38.60
38464;DHT22;24243;51.956;5.902;2022-08-11T12:19:43;28.60;38.50
38464;DHT22;24243;51.956;5.902;2022-08-11T12:22:09;28.60;38.50
38464;DHT22;24243;51.956;5.902;2022-08-11T12:24:53;28.60;38.50
38464;DHT22;24243;51.956;5.902;2022-08-11T12:27:37;28.60;38.40
38464;DHT22;24243;51.956;5.902;2022-08-11T12:30:05;28.60;38.40
38464;DHT22;24243;51.956;5.902;2022-08-11T12:32:31;28.60;38.30
38464;DHT22;24243;51.956;5.902;2022-08-11T12:34:57;28.60;38.30
38464;DHT22;24243;51.956;5.902;2022-08-11T12:37:26;28.70;38.20
38464;DHT22;24243;51.956;5.902;2022-08-11T12:39:56;28.70;38.20
38464;DHT22;24243;51.956;5.902;2022-08-11T12:42:41;28.70;38.20
38464;DHT22;24243;51.956;5.902;2022-08-11T12:45:26;28.70;38.10
38464;DHT22;24243;51.956;5.902;2022-08-11T12:47:52;28.70;38.10
38464;DHT22;24243;51.956;5.902;2022-08-11T12:50:37;28.70;38.00
38464;DHT22;24243;51.956;5.902;2022-08-11T12:53:26;28.70;38.00
38464;DHT22;24243;51.956;5.902;2022-08-11T12:55:56;28.70;38.10
38464;DHT22;24243;51.956;5.902;2022-08-11T12:58:43;28.70;38.10
38464;DHT22;24243;51.956;5.902;2022-08-11T13:01:10;28.70;38.10
38464;DHT22;24243;51.956;5.902;2022-08-11T13:03:55;28.70;38.10
38464;DHT22;24243;51.956;5.902;2022-08-11T13:06:40;28.70;38.00
38464;DHT22;24243;51.956;5.902;2022-08-11T13:09:06;28.70;37.90
38464;DHT22;24243;51.956;5.902;2022-08-11T13:11:33;28.70;37.90
38464;DHT22;24243;51.956;5.902;2022-08-11T13:14:19;28.70;37.90
38464;DHT22;24243;51.956;5.902;2022-08-11T13:16:45;28.70;37.90
38464;DHT22;24243;51.956;5.902;2022-08-11T13:19:29;28.70;37.80
38464;DHT22;24243;51.956;5.902;2022-08-11T13:21:55;28.70;37.70
38464;DHT22;24243;51.956;5.902;2022-08-11T13:24:21;28.70;37.70
38464;DHT22;24243;51.956;5.902;2022-08-11T13:26:48;28.70;37.70
38464;DHT22;24243;51.956;5.902;2022-08-11T13:29:18;28.70;37.70
38464;DHT22;24243;51.956;5.902;2022-08-11T13:31:44;28.70;37.70
38464;DHT22;24243;51.956;5.902;2022-08-11T13:34:10;28.70;37.60
38464;DHT22;24243;51.956;5.902;2022-08-11T13:36:36;28.70;37.60
38464;DHT22;24243;51.956;5.902;2022-08-11T13:39:02;28.70;37.50
38464;DHT22;24243;51.956;5.902;2022-08-11T13:41:28;28.70;37.40
38464;DHT22;24243;51.956;5.902;2022-08-11T13:44:04;28.80;37.40
38464;DHT22;24243;51.956;5.902;2022-08-11T13:46:30;28.80;37.40
38464;DHT22;24243;51.956;5.902;2022-08-11T13:48:56;28.80;37.30
38464;DHT22;24243;51.956;5.902;2022-08-11T13:51:23;28.80;37.30
38464;DHT22;24243;51.956;5.902;2022-08-11T13:54:10;28.80;37.90
38464;DHT22;24243;51.956;5.902;2022-08-11T13:56:37;28.80;37.20
38464;DHT22;24243;51.956;5.902;2022-08-11T13:59:04;28.80;37.20
38464;DHT22;24243;51.956;5.902;2022-08-11T14:01:36;28.90;37.30
38464;DHT22;24243;51.956;5.902;2022-08-11T14:04:19;28.80;37.20
38464;DHT22;24243;51.956;5.902;2022-08-11T14:06:50;28.80;37.30
38464;DHT22;24243;51.956;5.902;2022-08-11T14:09:18;28.80;37.30
38464;DHT22;24243;51.956;5.902;2022-08-11T14:11:46;28.80;37.30
38464;DHT22;24243;51.956;5.902;2022-08-11T14:14:31;28.90;37.30
38464;DHT22;24243;51.956;5.902;2022-08-11T14:16:59;28.90;37.20
38464;DHT22;24243;51.956;5.902;2022-08-11T14:19:26;28.90;37.20
38464;DHT22;24243;51.956;5.902;2022-08-11T14:21:52;28.90;37.20
38464;DHT22;24243;51.956;5.902;2022-08-11T14:24:35;28.90;37.20
38464;DHT22;24243;51.956;5.902;2022-08-11T14:27:01;28.90;37.20
38464;DHT22;24243;51.956;5.902;2022-08-11T14:29:27;28.90;37.20
38464;DHT22;24243;51.956;5.902;2022-08-11T14:31:54;28.80;37.20
38464;DHT22;24243;51.956;5.902;2022-08-11T14:34:21;28.80;37.20
38464;DHT22;24243;51.956;5.902;2022-08-11T14:36:48;28.80;37.30
38464;DHT22;24243;51.956;5.902;2022-08-11T14:39:18;28.80;37.30
38464;DHT22;24243;51.956;5.902;2022-08-11T14:41:44;28.80;37.30
38464;DHT22;24243;51.956;5.902;2022-08-11T14:44:30;28.70;37.20
38464;DHT22;24243;51.956;5.902;2022-08-11T14:47:16;28.80;37.10
38464;DHT22;24243;51.956;5.902;2022-08-11T14:49:42;28.80;37.10
38464;DHT22;24243;51.956;5.902;2022-08-11T14:52:09;28.80;37.00
38464;DHT22;24243;51.956;5.902;2022-08-11T14:54:35;28.80;37.00
38464;DHT22;24243;51.956;5.902;2022-08-11T14:57:20;28.80;36.90
38464;DHT22;24243;51.956;5.902;2022-08-11T14:59:47;28.80;36.90
38464;DHT22;24243;51.956;5.902;2022-08-11T15:02:13;28.80;36.80
38464;DHT22;24243;51.956;5.902;2022-08-11T15:04:58;28.80;36.70
38464;DHT22;24243;51.956;5.902;2022-08-11T15:07:24;28.80;36.60
38464;DHT22;24243;51.956;5.902;2022-08-11T15:09:55;28.80;36.50
38464;DHT22;24243;51.956;5.902;2022-08-11T15:12:21;28.80;36.50
38464;DHT22;24243;51.956;5.902;2022-08-11T15:14:47;28.90;36.50
38464;DHT22;24243;51.956;5.902;2022-08-11T15:17:32;28.80;36.40
38464;DHT22;24243;51.956;5.902;2022-08-11T15:20:02;28.80;36.50
38464;DHT22;24243;51.956;5.902;2022-08-11T15:22:47;28.80;36.50
38464;DHT22;24243;51.956;5.902;2022-08-11T15:25:31;28.80;36.50
38464;DHT22;24243;51.956;5.902;2022-08-11T15:27:59;28.80;36.50
38464;DHT22;24243;51.956;5.902;2022-08-11T15:30:43;28.80;36.50
38464;DHT22;24243;51.956;5.902;2022-08-11T15:33:28;28.70;36.40
38464;DHT22;24243;51.956;5.902;2022-08-11T15:36:13;28.70;36.40
38464;DHT22;24243;51.956;5.902;2022-08-11T15:38:58;28.70;36.50
38464;DHT22;24243;51.956;5.902;2022-08-11T15:41:48;28.70;36.50
38464;DHT22;24243;51.956;5.902;2022-08-11T15:44:30;28.70;36.50
38464;DHT22;24243;51.956;5.902;2022-08-11T15:47:24;28.70;36.50
38464;DHT22;24243;51.956;5.902;2022-08-11T15:49:52;28.70;36.50
38464;DHT22;24243;51.956;5.902;2022-08-11T15:52:20;28.70;36.50
38464;DHT22;24243;51.956;5.902;2022-08-11T15:54:47;28.70;36.40
38464;DHT22;24243;51.956;5.902;2022-08-11T15:57:14;28.70;36.40
38464;DHT22;24243;51.956;5.902;2022-08-11T16:00:04;28.70;36.40
38464;DHT22;24243;51.956;5.902;2022-08-11T16:02:49;28.70;36.40
38464;DHT22;24243;51.956;5.902;2022-08-11T16:05:21;28.70;36.40
38464;DHT22;24243;51.956;5.902;2022-08-11T16:07:47;28.70;37.10
38464;DHT22;24243;51.956;5.902;2022-08-11T16:10:14;28.70;36.40
38464;DHT22;24243;51.956;5.902;2022-08-11T16:15:50;28.70;36.30
38464;DHT22;24243;51.956;5.902;2022-08-11T16:18:47;28.70;36.30
38464;DHT22;24243;51.956;5.902;2022-08-11T16:21:17;28.70;36.30
38464;DHT22;24243;51.956;5.902;2022-08-11T16:23:43;28.70;36.20
38464;DHT22;24243;51.956;5.902;2022-08-11T16:26:11;28.70;36.20
38464;DHT22;24243;51.956;5.902;2022-08-11T16:28:37;28.70;36.20
38464;DHT22;24243;51.956;5.902;2022-08-11T16:31:04;28.70;36.20
38464;DHT22;24243;51.956;5.902;2022-08-11T16:33:35;28.70;36.20
38464;DHT22;24243;51.956;5.902;2022-08-11T16:36:02;28.70;36.20
38464;DHT22;24243;51.956;5.902;2022-08-11T16:38:46;28.70;36.10
38464;DHT22;24243;51.956;5.902;2022-08-11T16:41:15;28.70;36.10
38464;DHT22;24243;51.956;5.902;2022-08-11T16:44:01;28.70;36.10
38464;DHT22;24243;51.956;5.902;2022-08-11T16:46:45;28.70;36.00
38464;DHT22;24243;51.956;5.902;2022-08-11T16:52:08;28.70;36.00
38464;DHT22;24243;51.956;5.902;2022-08-11T16:54:36;28.70;36.10
38464;DHT22;24243;51.956;5.902;2022-08-11T16:57:03;28.70;36.10
38464;DHT22;24243;51.956;5.902;2022-08-11T16:59:48;28.70;36.10
38464;DHT22;24243;51.956;5.902;2022-08-11T17:02:15;28.70;36.10
38464;DHT22;24243;51.956;5.902;2022-08-11T17:05:25;28.70;36.10
38464;DHT22;24243;51.956;5.902;2022-08-11T17:08:09;28.70;36.10
38464;DHT22;24243;51.956;5.902;2022-08-11T17:10:57;28.70;36.00
38464;DHT22;24243;51.956;5.902;2022-08-11T17:16:09;28.70;35.90
38464;DHT22;24243;51.956;5.902;2022-08-11T17:21:21;28.70;35.80
38464;DHT22;24243;51.956;5.902;2022-08-11T17:23:50;28.70;35.80
38464;DHT22;24243;51.956;5.902;2022-08-11T17:26:20;28.80;35.90
38464;DHT22;24243;51.956;5.902;2022-08-11T17:28:47;28.80;35.80
38464;DHT22;24243;51.956;5.902;2022-08-11T17:31:15;28.80;35.80
38464;DHT22;24243;51.956;5.902;2022-08-11T17:34:00;28.80;35.80
38464;DHT22;24243;51.956;5.902;2022-08-11T17:36:45;28.80;35.80
38464;DHT22;24243;51.956;5.902;2022-08-11T17:39:11;28.80;35.70
38464;DHT22;24243;51.956;5.902;2022-08-11T17:41:38;28.80;35.80
38464;DHT22;24243;51.956;5.902;2022-08-11T17:44:23;28.80;35.70
38464;DHT22;24243;51.956;5.902;2022-08-11T17:47:07;28.80;35.70
38464;DHT22;24243;51.956;5.902;2022-08-11T17:49:52;28.80;35.70
38464;DHT22;24243;51.956;5.902;2022-08-11T17:52:18;28.80;35.70
38464;DHT22;24243;51.956;5.902;2022-08-11T17:55:03;28.80;35.70
38464;DHT22;24243;51.956;5.902;2022-08-11T17:57:48;28.80;35.70
38464;DHT22;24243;51.956;5.902;2022-08-11T18:00:33;28.80;35.70
38464;DHT22;24243;51.956;5.902;2022-08-11T18:02:59;28.80;35.70
38464;DHT22;24243;51.956;5.902;2022-08-11T18:05:45;28.80;35.70
38464;DHT22;24243;51.956;5.902;2022-08-11T18:08:11;28.70;35.60
38464;DHT22;24243;51.956;5.902;2022-08-11T18:10:57;28.70;35.80
38464;DHT22;24243;51.956;5.902;2022-08-11T18:13:42;28.70;36.00
38464;DHT22;24243;51.956;5.902;2022-08-11T18:16:27;28.70;36.20
38464;DHT22;24243;51.956;5.902;2022-08-11T18:19:11;28.70;36.20
38464;DHT22;24243;51.956;5.902;2022-08-11T18:21:56;28.70;36.30
38464;DHT22;24243;51.956;5.902;2022-08-11T18:24:43;28.70;36.20
38464;DHT22;24243;51.956;5.902;2022-08-11T18:27:29;28.70;36.30
38464;DHT22;24243;51.956;5.902;2022-08-11T18:30:14;28.70;36.40
38464;DHT22;24243;51.956;5.902;2022-08-11T18:32:59;28.70;36.40
38464;DHT22;24243;51.956;5.902;2022-08-11T18:35:45;28.70;36.40
38464;DHT22;24243;51.956;5.902;2022-08-11T18:38:32;28.70;36.40
38464;DHT22;24243;51.956;5.902;2022-08-11T18:41:16;28.70;36.40
38464;DHT22;24243;51.956;5.902;2022-08-11T18:44:02;28.70;36.40
38464;DHT22;24243;51.956;5.902;2022-08-11T18:46:48;28.70;36.40
38464;DHT22;24243;51.956;5.902;2022-08-11T18:49:34;28.70;36.40
38464;DHT22;24243;51.956;5.902;2022-08-11T18:52:19;28.70;36.40
38464;DHT22;24243;51.956;5.902;2022-08-11T18:55:04;28.60;36.40
38464;DHT22;24243;51.956;5.902;2022-08-11T18:57:50;28.60;36.40
38464;DHT22;24243;51.956;5.902;2022-08-11T19:00:35;28.60;36.40
38464;DHT22;24243;51.956;5.902;2022-08-11T19:03:20;28.60;36.40
38464;DHT22;24243;51.956;5.902;2022-08-11T19:06:05;28.60;36.40
38464;DHT22;24243;51.956;5.902;2022-08-11T19:08:56;28.60;36.40
38464;DHT22;24243;51.956;5.902;2022-08-11T19:11:42;28.60;36.40
38464;DHT22;24243;51.956;5.902;2022-08-11T19:14:28;28.50;36.30
38464;DHT22;24243;51.956;5.902;2022-08-11T19:17:12;28.50;36.30
38464;DHT22;24243;51.956;5.902;2022-08-11T19:19:57;28.50;36.40
38464;DHT22;24243;51.956;5.902;2022-08-11T19:22:42;28.50;37.00
38464;DHT22;24243;51.956;5.902;2022-08-11T19:25:27;28.40;36.30
38464;DHT22;24243;51.956;5.902;2022-08-11T19:28:13;28.40;36.30
38464;DHT22;24243;51.956;5.902;2022-08-11T19:30:57;28.40;36.30
38464;DHT22;24243;51.956;5.902;2022-08-11T19:33:42;28.40;36.40
38464;DHT22;24243;51.956;5.902;2022-08-11T19:36:27;28.30;36.30
38464;DHT22;24243;51.956;5.902;2022-08-11T19:39:12;28.30;36.30
38464;DHT22;24243;51.956;5.902;2022-08-11T19:41:57;28.30;36.30
38464;DHT22;24243;51.956;5.902;2022-08-11T19:44:41;28.30;36.30
38464;DHT22;24243;51.956;5.902;2022-08-11T19:47:26;28.20;36.30